Kohat Weather



Kohat's Current Weather

Temprature 6o mist

mist

Rain: 0 %

Min Temprature6o
Max Temprature6o
Humidity93
Wind Speed0.44 m/h
Sun Rise07:17:37
Sun Set17:31:09
Current Time: 18-Jan-2021 05:41:58
Lat/Lon: 33.582, 71.4493




Kohat's Geo Location



Kohat's Weather Forecast

Time Overall Temp Min Temp Max Temp Humidity Wind Speed Rain
18-Jan-2021 (Mon)
08:00:00 clear sky 7.720 7.720 8.130 55 0.6 m/h 0 %
11:00:00 clear sky 13.740 13.740 15.500 37 1.04 m/h 0 %
14:00:00 clear sky 16.980 16.980 17.640 30 1.64 m/h 0 %
17:00:00 clear sky 15.210 15.210 15.270 41 0.97 m/h 0 %
20:00:00 few clouds 11.510 11.510 11.510 46 1.2 m/h 0 %
23:00:00 few clouds 10.310 10.310 10.310 48 0.99 m/h 0 %
19-Jan-2021 (Tue)
02:00:00 clear sky 9.590 9.590 9.590 49 1.24 m/h 0 %
05:00:00 clear sky 8.600 8.600 8.600 51 1.16 m/h 0 %
08:00:00 clear sky 9.450 9.450 9.450 48 1.26 m/h 0 %
11:00:00 clear sky 17.230 17.230 17.230 28 0.64 m/h 0 %
14:00:00 clear sky 19.330 19.330 19.330 25 0.97 m/h 0 %
17:00:00 clear sky 16.240 16.240 16.240 34 0.66 m/h 0 %
20:00:00 clear sky 12.750 12.750 12.750 39 1.34 m/h 0 %
23:00:00 clear sky 11.430 11.430 11.430 42 1.22 m/h 0 %
20-Jan-2021 (Wed)
02:00:00 clear sky 10.340 10.340 10.340 44 1.04 m/h 0 %
05:00:00 clear sky 9.280 9.280 9.280 46 1.34 m/h 0 %
08:00:00 clear sky 9.950 9.950 9.950 46 1.46 m/h 0 %
11:00:00 clear sky 17.970 17.970 17.970 27 0.98 m/h 0 %
14:00:00 scattered clouds 20.160 20.160 20.160 23 0.73 m/h 0 %
17:00:00 broken clouds 16.560 16.560 16.560 34 0.28 m/h 0 %
20:00:00 overcast clouds 12.820 12.820 12.820 39 0.93 m/h 0 %
23:00:00 broken clouds 12.020 12.020 12.020 40 1.05 m/h 0 %
21-Jan-2021 (Thu)
02:00:00 overcast clouds 11.020 11.020 11.020 42 1.33 m/h 0 %
05:00:00 overcast clouds 9.890 9.890 9.890 44 1.37 m/h 0 %
08:00:00 overcast clouds 10.070 10.070 10.070 45 0.77 m/h 0 %
11:00:00 broken clouds 17.480 17.480 17.480 27 1.19 m/h 0 %
14:00:00 broken clouds 19.420 19.420 19.420 24 1.64 m/h 0 %
17:00:00 broken clouds 16.490 16.490 16.490 31 1.14 m/h 0 %
20:00:00 broken clouds 12.330 12.330 12.330 40 0.58 m/h 0 %
23:00:00 scattered clouds 10.960 10.960 10.960 43 0.49 m/h 0 %
22-Jan-2021 (Fri)
02:00:00 clear sky 9.910 9.910 9.910 45 1.02 m/h 0 %
05:00:00 scattered clouds 9.010 9.010 9.010 47 0.84 m/h 0 %
08:00:00 few clouds 9.490 9.490 9.490 47 0.48 m/h 0 %
11:00:00 few clouds 16.490 16.490 16.490 28 0.86 m/h 0 %
14:00:00 clear sky 18.340 18.340 18.340 26 2.33 m/h 0 %
17:00:00 clear sky 16.050 16.050 16.050 32 1.53 m/h 0 %
20:00:00 clear sky 12.590 12.590 12.590 38 2.01 m/h 0 %
23:00:00 clear sky 11.350 11.350 11.350 41 2.19 m/h 0 %
23-Jan-2021 (Sat)
02:00:00 clear sky 9.700 9.700 9.700 45 2.26 m/h 0 %
05:00:00 clear sky 8.890 8.890 8.890 45 3.4 m/h 0 %

Famous Cities (60)